sensor_id;sensor_type;location;lat;lon;timestamp;pressure;altitude;pressure_sealevel;temperature;humidity
40650;BME280;26342;42.826;23.992;2023-05-07T00:02:56;95620.72;;;8.79;100.00
40650;BME280;26342;42.826;23.992;2023-05-07T00:05:22;95616.66;;;8.77;100.00
40650;BME280;26342;42.826;23.992;2023-05-07T00:07:49;95627.25;;;8.72;100.00
40650;BME280;26342;42.826;23.992;2023-05-07T00:10:15;95622.72;;;8.72;100.00
40650;BME280;26342;42.826;23.992;2023-05-07T00:12:41;95632.22;;;8.68;100.00
40650;BME280;26342;42.826;23.992;2023-05-07T00:15:07;95622.88;;;8.65;100.00
40650;BME280;26342;42.826;23.992;2023-05-07T00:17:35;95621.16;;;8.59;100.00
40650;BME280;26342;42.826;23.992;2023-05-07T00:20:11;95622.44;;;8.57;100.00
40650;BME280;26342;42.826;23.992;2023-05-07T00:22:36;95606.16;;;8.53;100.00
40650;BME280;26342;42.826;23.992;2023-05-07T00:25:03;95622.19;;;8.58;100.00
40650;BME280;26342;42.826;23.992;2023-05-07T00:27:30;95612.13;;;8.60;100.00
40650;BME280;26342;42.826;23.992;2023-05-07T00:29:55;95617.44;;;8.60;100.00
40650;BME280;26342;42.826;23.992;2023-05-07T00:32:27;95612.28;;;8.54;100.00
40650;BME280;26342;42.826;23.992;2023-05-07T00:35:00;95608.22;;;8.51;100.00
40650;BME280;26342;42.826;23.992;2023-05-07T00:37:27;95617.81;;;8.52;100.00
40650;BME280;26342;42.826;23.992;2023-05-07T00:39:53;95618.56;;;8.48;100.00
40650;BME280;26342;42.826;23.992;2023-05-07T00:42:19;95608.97;;;8.47;100.00
40650;BME280;26342;42.826;23.992;2023-05-07T00:44:45;95614.03;;;8.48;100.00
40650;BME280;26342;42.826;23.992;2023-05-07T00:47:11;95604.69;;;8.46;100.00
40650;BME280;26342;42.826;23.992;2023-05-07T00:49:39;95605.38;;;8.41;100.00
40650;BME280;26342;42.826;23.992;2023-05-07T00:52:15;95609.66;;;8.42;100.00
40650;BME280;26342;42.826;23.992;2023-05-07T00:54:41;95617.53;;;8.37;100.00
40650;BME280;26342;42.826;23.992;2023-05-07T00:57:09;95607.94;;;8.36;100.00
40650;BME280;26342;42.826;23.992;2023-05-07T00:59:34;95603.56;;;8.30;100.00
40650;BME280;26342;42.826;23.992;2023-05-07T01:02:00;95606.44;;;8.28;100.00
40650;BME280;26342;42.826;23.992;2023-05-07T01:04:26;95617.31;;;8.27;100.00
40650;BME280;26342;42.826;23.992;2023-05-07T01:06:53;95610.13;;;8.27;100.00
40650;BME280;26342;42.826;23.992;2023-05-07T01:09:21;95613.59;;;8.28;100.00
40650;BME280;26342;42.826;23.992;2023-05-07T01:11:49;95607.47;;;8.27;100.00
40650;BME280;26342;42.826;23.992;2023-05-07T01:14:16;95619.97;;;8.27;100.00
40650;BME280;26342;42.826;23.992;2023-05-07T01:16:41;95617.53;;;8.25;100.00
40650;BME280;26342;42.826;23.992;2023-05-07T01:19:08;95613.66;;;8.16;100.00
40650;BME280;26342;42.826;23.992;2023-05-07T01:21:37;95601.72;;;8.19;100.00
40650;BME280;26342;42.826;23.992;2023-05-07T01:24:04;95613.97;;;8.20;100.00
40650;BME280;26342;42.826;23.992;2023-05-07T01:26:30;95610.88;;;8.23;100.00
40650;BME280;26342;42.826;23.992;2023-05-07T01:28:56;95617.22;;;8.22;100.00
40650;BME280;26342;42.826;23.992;2023-05-07T01:31:22;95616.31;;;8.16;100.00
40650;BME280;26342;42.826;23.992;2023-05-07T01:33:49;95608.13;;;8.06;100.00
40650;BME280;26342;42.826;23.992;2023-05-07T01:36:17;95612.06;;;8.03;100.00
40650;BME280;26342;42.826;23.992;2023-05-07T01:38:44;95619.47;;;8.01;100.00
40650;BME280;26342;42.826;23.992;2023-05-07T01:41:11;95610.19;;;8.04;100.00
40650;BME280;26342;42.826;23.992;2023-05-07T01:43:37;95606.97;;;8.02;100.00
40650;BME280;26342;42.826;23.992;2023-05-07T01:46:02;95614.13;;;8.01;100.00
40650;BME280;26342;42.826;23.992;2023-05-07T01:48:28;95606.28;;;8.06;100.00
40650;BME280;26342;42.826;23.992;2023-05-07T01:50:55;95601.78;;;8.07;100.00
40650;BME280;26342;42.826;23.992;2023-05-07T01:53:22;95607.09;;;7.95;100.00
40650;BME280;26342;42.826;23.992;2023-05-07T01:55:48;95605.97;;;7.91;100.00
40650;BME280;26342;42.826;23.992;2023-05-07T01:58:13;95602.72;;;7.89;100.00
40650;BME280;26342;42.826;23.992;2023-05-07T02:00:39;95595.34;;;7.91;100.00
40650;BME280;26342;42.826;23.992;2023-05-07T02:03:05;95595.56;;;7.90;100.00
40650;BME280;26342;42.826;23.992;2023-05-07T02:05:31;95592.31;;;7.88;100.00
40650;BME280;26342;42.826;23.992;2023-05-07T02:07:56;95587.56;;;7.90;100.00
40650;BME280;26342;42.826;23.992;2023-05-07T02:10:22;95585.16;;;7.88;100.00
40650;BME280;26342;42.826;23.992;2023-05-07T02:12:47;95578.22;;;7.87;100.00
40650;BME280;26342;42.826;23.992;2023-05-07T02:15:13;95568.09;;;7.84;100.00
40650;BME280;26342;42.826;23.992;2023-05-07T02:17:58;95573.41;;;7.84;100.00
40650;BME280;26342;42.826;23.992;2023-05-07T02:20:24;95573.41;;;7.84;100.00
40650;BME280;26342;42.826;23.992;2023-05-07T02:22:49;95572.84;;;7.82;100.00
40650;BME280;26342;42.826;23.992;2023-05-07T02:25:15;95572.47;;;7.78;100.00
40650;BME280;26342;42.826;23.992;2023-05-07T02:27:40;95576.75;;;7.79;100.00
40650;BME280;26342;42.826;23.992;2023-05-07T02:30:06;95568.81;;;7.68;100.00
40650;BME280;26342;42.826;23.992;2023-05-07T02:32:32;95573.66;;;7.71;100.00
40650;BME280;26342;42.826;23.992;2023-05-07T02:34:57;95572.03;;;7.70;100.00
40650;BME280;26342;42.826;23.992;2023-05-07T02:37:23;95567.41;;;7.65;100.00
40650;BME280;26342;42.826;23.992;2023-05-07T02:39:51;95567.28;;;7.72;100.00
40650;BME280;26342;42.826;23.992;2023-05-07T02:42:17;95563.88;;;7.60;100.00
40650;BME280;26342;42.826;23.992;2023-05-07T02:44:44;95565.59;;;7.54;100.00
40650;BME280;26342;42.826;23.992;2023-05-07T02:47:14;95560.75;;;7.51;100.00
40650;BME280;26342;42.826;23.992;2023-05-07T02:49:40;95560.41;;;7.47;100.00
40650;BME280;26342;42.826;23.992;2023-05-07T02:52:06;95551.50;;;7.42;100.00
40650;BME280;26342;42.826;23.992;2023-05-07T02:54:33;95556.13;;;7.46;100.00
40650;BME280;26342;42.826;23.992;2023-05-07T02:56:59;95562.47;;;7.45;100.00
40650;BME280;26342;42.826;23.992;2023-05-07T02:59:26;95571.84;;;7.36;100.00
40650;BME280;26342;42.826;23.992;2023-05-07T03:01:51;95573.69;;;7.36;100.00
40650;BME280;26342;42.826;23.992;2023-05-07T03:04:17;95564.78;;;7.30;100.00
40650;BME280;26342;42.826;23.992;2023-05-07T03:06:53;95566.41;;;7.31;100.00
40650;BME280;26342;42.826;23.992;2023-05-07T03:09:26;95569.31;;;7.30;100.00
40650;BME280;26342;42.826;23.992;2023-05-07T03:11:51;95571.25;;;7.22;100.00
40650;BME280;26342;42.826;23.992;2023-05-07T03:14:17;95568.13;;;7.25;100.00
40650;BME280;26342;42.826;23.992;2023-05-07T03:16:42;95571.50;;;7.21;100.00
40650;BME280;26342;42.826;23.992;2023-05-07T03:19:08;95573.56;;;7.19;100.00
40650;BME280;26342;42.826;23.992;2023-05-07T03:21:33;95578.41;;;7.22;100.00
40650;BME280;26342;42.826;23.992;2023-05-07T03:24:00;95579.22;;;7.22;100.00
40650;BME280;26342;42.826;23.992;2023-05-07T03:26:30;95581.53;;;7.19;100.00
40650;BME280;26342;42.826;23.992;2023-05-07T03:28:56;95565.50;;;7.14;100.00
40650;BME280;26342;42.826;23.992;2023-05-07T03:31:24;95572.66;;;7.13;100.00
40650;BME280;26342;42.826;23.992;2023-05-07T03:33:54;95576.69;;;7.16;100.00
40650;BME280;26342;42.826;23.992;2023-05-07T03:36:21;95570.69;;;7.20;100.00
